Current Weather

Albertus

Freeport, Illinois (KFEP)

Report from: Tuesday, July 16, 2024 4:35 AM CDT
Current time: Tuesday, July 16, 2024 5:08 AM CDT

Nearby weather – Weather history – Daily summaries
Weather forecast

Temperature19.7°C (67.5°F)
Dew point18.0°C (64.4°F)
Winds 6 kts (3.1 m/s, 6.9 mph) West-Southwest (240°)
Visibility10 mi. (16.1 km)
Clouds Scattered clouds 3,700 ft. (1,128 m)
Altimeter29.77 in.Hg (1008 mB)
Relative humidity90 %
Density altitude1,005 ft. (306 m)
Remarks Fully automated report
Automated weather observing station with precipitation discriminator
Flight conditions Visual Meteorological Conditions
Raw dataKFEP 160935Z AUTO 24006KT 10SM SCT037 20/18 A2977 RMK AO2 T01970180
An error has occurred. This application may no longer respond until reloaded. Reload 🗙